createdAt,value
2022-10-25T00:00:56.301Z,0.00
2022-10-25T00:01:56.475Z,0.00
2022-10-25T00:02:56.301Z,0.00
2022-10-25T00:03:56.296Z,0.00
2022-10-25T00:04:56.310Z,0.00
2022-10-25T00:05:56.274Z,0.00
2022-10-25T00:06:56.273Z,0.00
2022-10-25T00:07:56.459Z,0.00
2022-10-25T00:08:56.250Z,0.00
2022-10-25T00:09:56.241Z,0.00
2022-10-25T00:10:56.222Z,0.00
2022-10-25T00:11:56.221Z,0.00
2022-10-25T00:12:56.215Z,0.00
2022-10-25T00:13:56.201Z,0.00
2022-10-25T00:14:56.190Z,0.00
2022-10-25T00:15:56.190Z,0.00
2022-10-25T00:16:56.184Z,0.00
2022-10-25T00:17:56.195Z,0.00
2022-10-25T00:18:56.179Z,0.00
2022-10-25T00:19:56.171Z,0.00
2022-10-25T00:20:56.185Z,0.00
2022-10-25T00:21:56.153Z,0.00
2022-10-25T00:22:56.156Z,0.00
2022-10-25T00:23:56.140Z,0.00
2022-10-25T00:24:56.134Z,0.00
2022-10-25T00:25:56.314Z,0.00
2022-10-25T00:26:56.104Z,0.00
2022-10-25T00:27:56.109Z,0.00
2022-10-25T00:28:56.100Z,0.00
2022-10-25T00:29:56.071Z,0.00
2022-10-25T00:30:56.073Z,0.00
2022-10-25T00:31:56.054Z,0.00
2022-10-25T00:32:56.252Z,0.00
2022-10-25T00:33:56.041Z,0.00
2022-10-25T00:34:56.042Z,0.00
2022-10-25T00:35:56.038Z,0.00
2022-10-25T00:36:56.028Z,0.00
2022-10-25T00:37:56.016Z,0.00
2022-10-25T00:38:56.047Z,0.00
2022-10-25T00:39:55.988Z,0.00
2022-10-25T00:40:55.996Z,0.00
2022-10-25T00:41:55.981Z,0.00
2022-10-25T00:42:55.978Z,0.00
2022-10-25T00:43:55.985Z,0.00
2022-10-25T00:44:55.962Z,0.00
2022-10-25T00:45:56.016Z,0.00
2022-10-25T00:46:55.939Z,0.00
2022-10-25T00:47:55.939Z,0.00
2022-10-25T00:48:55.931Z,0.00
2022-10-25T00:49:55.928Z,0.00
2022-10-25T00:50:55.906Z,0.00
2022-10-25T00:51:55.912Z,0.00
2022-10-25T00:52:55.911Z,0.00
2022-10-25T00:53:55.915Z,0.00
2022-10-25T00:54:55.910Z,0.00
2022-10-25T00:55:55.872Z,0.00
2022-10-25T00:56:55.882Z,0.00
2022-10-25T00:57:55.858Z,0.00
2022-10-25T00:58:55.859Z,0.00
2022-10-25T00:59:55.862Z,0.00
2022-10-25T01:00:55.845Z,0.00
2022-10-25T01:01:56.107Z,0.00
2022-10-25T01:03:55.818Z,0.00
2022-10-25T01:04:56.025Z,0.00
2022-10-25T01:05:55.802Z,0.00
2022-10-25T01:06:55.796Z,0.00
2022-10-25T01:07:55.776Z,0.00
2022-10-25T01:08:55.794Z,0.00
2022-10-25T01:09:55.793Z,0.00
2022-10-25T01:10:55.783Z,0.00
2022-10-25T01:11:55.750Z,0.00
2022-10-25T01:12:56.105Z,0.00
2022-10-25T01:13:55.744Z,0.00
2022-10-25T01:14:55.738Z,0.00
2022-10-25T01:15:55.773Z,0.00
2022-10-25T01:16:55.742Z,0.00
2022-10-25T01:17:55.711Z,0.00
2022-10-25T01:18:55.698Z,0.00
2022-10-25T01:19:55.684Z,0.00
2022-10-25T01:20:55.714Z,0.00
2022-10-25T01:21:55.670Z,0.00
2022-10-25T01:22:55.674Z,0.00
2022-10-25T01:23:55.647Z,0.00
2022-10-25T01:24:55.648Z,0.00
2022-10-25T01:25:55.655Z,0.00
2022-10-25T01:26:55.671Z,0.00
2022-10-25T01:28:55.617Z,0.00
2022-10-25T01:29:55.613Z,0.00
2022-10-25T01:30:55.607Z,0.00
2022-10-25T01:31:55.617Z,0.00
2022-10-25T01:32:55.588Z,0.00
2022-10-25T01:33:55.577Z,0.00
2022-10-25T01:34:55.571Z,0.00
2022-10-25T01:35:55.550Z,0.00
2022-10-25T01:36:55.551Z,0.00
2022-10-25T01:37:55.555Z,0.00
2022-10-25T01:38:55.527Z,0.00
2022-10-25T01:39:55.534Z,0.00
2022-10-25T01:40:55.529Z,0.00
2022-10-25T01:41:55.516Z,0.00
2022-10-25T01:42:55.517Z,0.00
2022-10-25T01:43:55.505Z,0.00
2022-10-25T01:44:55.498Z,0.00
2022-10-25T01:45:55.484Z,0.00
2022-10-25T01:46:55.487Z,0.00
2022-10-25T01:47:55.709Z,0.00
2022-10-25T01:48:55.476Z,0.00
2022-10-25T01:49:55.460Z,0.00
2022-10-25T01:50:55.452Z,0.00
2022-10-25T01:51:55.462Z,0.00
2022-10-25T01:52:55.503Z,0.00
2022-10-25T01:53:55.431Z,0.00
2022-10-25T01:54:55.455Z,0.00
2022-10-25T01:55:55.413Z,0.00
2022-10-25T01:56:55.392Z,0.00
2022-10-25T01:57:55.387Z,0.00
2022-10-25T01:58:55.405Z,0.00
2022-10-25T01:59:55.364Z,0.00
2022-10-25T02:00:55.462Z,0.00
2022-10-25T02:01:55.568Z,0.00
2022-10-25T02:02:55.369Z,0.00
2022-10-25T02:03:55.558Z,0.00
2022-10-25T02:04:55.343Z,0.00
2022-10-25T02:05:55.331Z,0.00
2022-10-25T02:06:55.324Z,0.00
2022-10-25T02:07:55.331Z,0.00
2022-10-25T02:08:55.322Z,0.00
2022-10-25T02:09:55.584Z,0.00
2022-10-25T02:10:55.286Z,0.00
2022-10-25T02:11:55.282Z,0.00
2022-10-25T02:12:55.265Z,0.00
2022-10-25T02:13:55.259Z,0.00
2022-10-25T02:14:55.279Z,0.00
2022-10-25T02:15:55.447Z,0.00
2022-10-25T02:16:55.230Z,0.00
2022-10-25T02:17:55.260Z,0.00
2022-10-25T02:18:55.262Z,0.00
2022-10-25T02:19:55.210Z,0.00
2022-10-25T02:20:55.213Z,0.00
2022-10-25T02:21:55.396Z,0.00
2022-10-25T02:22:55.197Z,0.00
2022-10-25T02:23:55.180Z,0.00
2022-10-25T02:24:55.187Z,0.00
2022-10-25T02:25:55.207Z,0.00
2022-10-25T02:26:55.160Z,0.00
2022-10-25T02:27:55.167Z,0.00
2022-10-25T02:28:55.192Z,0.00
2022-10-25T02:29:55.144Z,0.00
2022-10-25T02:30:55.168Z,0.00
2022-10-25T02:31:55.191Z,0.00
2022-10-25T02:32:55.115Z,0.00
2022-10-25T02:33:55.310Z,0.00
2022-10-25T02:34:55.164Z,0.00
2022-10-25T02:35:55.082Z,0.00
2022-10-25T02:36:55.075Z,0.00
2022-10-25T02:37:55.074Z,0.00
2022-10-25T02:38:55.072Z,0.00
2022-10-25T02:39:55.055Z,0.00
2022-10-25T02:40:55.238Z,0.00
2022-10-25T02:41:55.228Z,0.00
2022-10-25T02:42:55.125Z,0.00
2022-10-25T02:43:55.029Z,0.00
2022-10-25T02:44:55.044Z,0.00
2022-10-25T02:45:55.240Z,0.00
2022-10-25T02:46:55.023Z,0.00
2022-10-25T02:47:55.016Z,0.00
2022-10-25T02:48:54.982Z,0.00
2022-10-25T02:49:55.038Z,0.00
2022-10-25T02:50:54.968Z,0.00
2022-10-25T02:51:54.947Z,0.00
2022-10-25T02:52:54.979Z,0.00
2022-10-25T02:53:55.012Z,0.00
2022-10-25T02:54:54.930Z,0.00
2022-10-25T02:55:54.954Z,0.00
2022-10-25T02:56:54.928Z,0.00
2022-10-25T02:57:54.913Z,0.00
2022-10-25T02:58:54.969Z,0.00
2022-10-25T02:59:54.900Z,0.00
2022-10-25T03:00:55.023Z,0.00
2022-10-25T03:01:54.968Z,0.00
2022-10-25T03:02:55.166Z,0.00
2022-10-25T03:03:54.871Z,0.00
2022-10-25T03:04:54.843Z,0.00
2022-10-25T03:05:54.848Z,0.00
2022-10-25T03:06:54.856Z,0.00
2022-10-25T03:07:54.908Z,0.00
2022-10-25T03:08:54.843Z,0.00
2022-10-25T03:09:54.852Z,0.00
2022-10-25T03:10:54.816Z,0.00
2022-10-25T03:11:54.970Z,0.00
2022-10-25T03:12:54.775Z,0.00
2022-10-25T03:13:54.991Z,0.00
2022-10-25T03:14:54.779Z,0.00
2022-10-25T03:15:54.766Z,0.00
2022-10-25T03:16:54.762Z,0.00
2022-10-25T03:17:54.742Z,0.00
2022-10-25T03:18:54.745Z,0.00
2022-10-25T03:19:54.726Z,0.00
2022-10-25T03:20:54.710Z,0.00
2022-10-25T03:21:54.767Z,0.00
2022-10-25T03:22:54.699Z,0.00
2022-10-25T03:23:54.706Z,0.00
2022-10-25T03:24:54.861Z,0.00
2022-10-25T03:25:54.696Z,0.00
2022-10-25T03:26:54.662Z,0.00
2022-10-25T03:27:54.676Z,0.00
2022-10-25T03:28:54.644Z,0.00
2022-10-25T03:29:54.643Z,0.00
2022-10-25T03:30:54.692Z,0.00
2022-10-25T03:31:54.695Z,0.00
2022-10-25T03:32:54.668Z,0.00
2022-10-25T03:33:54.613Z,0.00
2022-10-25T03:34:54.650Z,0.00
2022-10-25T03:35:54.803Z,0.00
2022-10-25T03:36:54.647Z,0.00
2022-10-25T03:37:54.581Z,0.00
2022-10-25T03:38:54.577Z,0.00
2022-10-25T03:39:54.546Z,0.00
2022-10-25T03:40:54.545Z,0.00
2022-10-25T03:41:54.550Z,0.00
2022-10-25T03:42:54.517Z,0.00
2022-10-25T03:43:54.553Z,0.00
2022-10-25T03:44:54.521Z,0.00
2022-10-25T03:45:54.514Z,0.00
2022-10-25T03:46:54.521Z,0.00
2022-10-25T03:47:54.475Z,0.00
2022-10-25T03:48:54.519Z,0.00
2022-10-25T03:49:54.483Z,0.00
2022-10-25T03:50:54.522Z,0.00
2022-10-25T03:51:57.846Z,0.00
2022-10-25T03:52:54.475Z,0.00
2022-10-25T03:53:54.459Z,0.00
2022-10-25T03:54:54.429Z,0.00
2022-10-25T03:55:54.422Z,0.00
2022-10-25T03:56:54.431Z,0.00
2022-10-25T03:57:54.446Z,0.00
2022-10-25T03:58:54.429Z,0.00
2022-10-25T03:59:54.461Z,0.00
2022-10-25T04:00:54.504Z,0.00
2022-10-25T04:01:54.892Z,0.00
2022-10-25T04:02:56.057Z,0.00
2022-10-25T04:03:54.338Z,0.00
2022-10-25T04:04:54.360Z,0.00
2022-10-25T04:05:54.319Z,0.00
2022-10-25T04:06:54.337Z,0.00
2022-10-25T04:07:54.314Z,0.00
2022-10-25T04:08:54.318Z,0.00
2022-10-25T04:09:54.301Z,0.00
2022-10-25T04:10:54.490Z,0.00
2022-10-25T04:11:54.280Z,0.00
2022-10-25T04:12:54.944Z,0.00
2022-10-25T04:13:54.254Z,0.00
2022-10-25T04:14:54.278Z,0.00
2022-10-25T04:15:54.262Z,0.00
2022-10-25T04:16:54.224Z,0.00
2022-10-25T04:17:54.223Z,0.00
2022-10-25T04:18:54.219Z,0.00
2022-10-25T04:19:54.216Z,0.00
2022-10-25T04:20:54.206Z,0.00
2022-10-25T04:21:54.191Z,0.00
2022-10-25T04:22:54.206Z,0.00
2022-10-25T04:23:54.176Z,0.00
2022-10-25T04:24:54.171Z,0.00
2022-10-25T04:25:54.167Z,0.00
2022-10-25T04:26:54.332Z,0.00
2022-10-25T04:27:54.131Z,0.00
2022-10-25T04:28:54.329Z,0.00
2022-10-25T04:29:54.110Z,0.00
2022-10-25T04:30:54.127Z,0.00
2022-10-25T04:31:54.109Z,0.00
2022-10-25T04:32:54.131Z,0.00
2022-10-25T04:33:54.093Z,0.00
2022-10-25T04:34:54.090Z,0.00
2022-10-25T04:35:54.065Z,0.00
2022-10-25T04:36:54.059Z,0.00
2022-10-25T04:37:54.039Z,0.00
2022-10-25T04:38:54.059Z,0.00
2022-10-25T04:39:54.014Z,0.00
2022-10-25T04:40:54.018Z,0.00
2022-10-25T04:41:54.019Z,0.00
2022-10-25T04:42:54.031Z,0.00
2022-10-25T04:43:54.056Z,0.00
2022-10-25T04:44:53.986Z,0.00
2022-10-25T04:45:53.987Z,0.00
2022-10-25T04:46:53.966Z,0.00
2022-10-25T04:47:53.969Z,0.00
2022-10-25T04:48:53.951Z,0.00
2022-10-25T04:49:53.956Z,0.00
2022-10-25T04:50:53.945Z,0.00
2022-10-25T04:51:53.924Z,0.00
2022-10-25T04:52:53.929Z,0.00
2022-10-25T04:53:53.910Z,0.00
2022-10-25T04:54:53.912Z,0.00
2022-10-25T04:55:53.888Z,0.00
2022-10-25T04:56:53.880Z,0.00
2022-10-25T04:57:53.881Z,0.00
2022-10-25T04:58:53.878Z,0.00
2022-10-25T04:59:53.863Z,0.00
2022-10-25T05:00:53.866Z,0.00
2022-10-25T05:01:53.879Z,0.00
2022-10-25T05:02:53.867Z,0.00
2022-10-25T05:03:53.841Z,0.00
2022-10-25T05:04:53.814Z,0.00
2022-10-25T05:05:53.804Z,0.00
2022-10-25T05:06:53.795Z,0.00
2022-10-25T05:07:53.797Z,0.00
2022-10-25T05:08:53.793Z,0.00
2022-10-25T05:09:53.773Z,0.00
2022-10-25T05:10:53.795Z,0.00
2022-10-25T05:11:53.749Z,0.00
2022-10-25T05:12:53.759Z,0.00
2022-10-25T05:13:53.780Z,0.00
2022-10-25T05:14:53.729Z,0.00
2022-10-25T05:15:53.742Z,0.00
2022-10-25T05:16:53.708Z,0.00
2022-10-25T05:17:53.713Z,0.00
2022-10-25T05:18:53.729Z,0.00
2022-10-25T05:19:53.883Z,0.00
2022-10-25T05:20:53.682Z,0.00
2022-10-25T05:21:53.672Z,0.00
2022-10-25T05:22:53.693Z,0.00
2022-10-25T05:23:57.629Z,0.00
2022-10-25T05:24:53.663Z,0.00
2022-10-25T05:25:53.651Z,0.00
2022-10-25T05:26:53.691Z,0.00
2022-10-25T05:27:53.627Z,0.00
2022-10-25T05:28:53.634Z,0.00
2022-10-25T05:29:53.607Z,0.00
2022-10-25T05:30:53.603Z,0.00
2022-10-25T05:31:53.692Z,0.00
2022-10-25T05:32:53.571Z,0.00
2022-10-25T05:33:53.766Z,0.00
2022-10-25T05:34:53.551Z,0.00
2022-10-25T05:35:53.584Z,0.00
2022-10-25T05:36:53.531Z,0.00
2022-10-25T05:37:53.541Z,0.00
2022-10-25T05:38:53.514Z,0.00
2022-10-25T05:39:53.554Z,0.00
2022-10-25T05:40:53.562Z,0.00
2022-10-25T05:41:53.529Z,0.00
2022-10-25T05:42:53.575Z,0.00
2022-10-25T05:43:53.488Z,0.00
2022-10-25T05:44:53.476Z,0.00
2022-10-25T05:45:53.459Z,0.00
2022-10-25T05:46:53.466Z,0.00
2022-10-25T05:47:53.653Z,0.00
2022-10-25T05:48:53.439Z,0.00
2022-10-25T05:49:53.466Z,0.00
2022-10-25T05:50:59.317Z,0.00
2022-10-25T05:51:53.406Z,0.00
2022-10-25T05:52:53.416Z,5.63
2022-10-25T05:53:53.460Z,5.63
2022-10-25T05:54:53.397Z,5.63
2022-10-25T05:55:53.419Z,5.63
2022-10-25T05:56:53.375Z,5.63
2022-10-25T05:57:53.386Z,5.63
2022-10-25T05:58:53.399Z,11.25
2022-10-25T05:59:53.346Z,11.25
2022-10-25T06:00:53.391Z,11.25
2022-10-25T06:01:53.453Z,11.25
2022-10-25T06:02:53.321Z,11.25
2022-10-25T06:03:53.324Z,11.25
2022-10-25T06:04:53.330Z,11.25
2022-10-25T06:05:53.307Z,16.88
2022-10-25T06:06:53.274Z,16.88
2022-10-25T06:07:53.288Z,16.88
2022-10-25T06:08:53.391Z,16.88
2022-10-25T06:09:53.279Z,22.50
2022-10-25T06:10:53.259Z,28.13
2022-10-25T06:11:53.250Z,73.13
2022-10-25T06:12:53.232Z,123.75
2022-10-25T06:13:53.241Z,174.38
2022-10-25T06:14:53.260Z,191.25
2022-10-25T06:15:53.230Z,185.63
2022-10-25T06:16:53.200Z,191.25
2022-10-25T06:17:53.211Z,191.25
2022-10-25T06:18:53.202Z,106.88
2022-10-25T06:19:53.198Z,135.00
2022-10-25T06:20:53.213Z,202.50
2022-10-25T06:21:53.233Z,275.63
2022-10-25T06:22:53.160Z,382.50
2022-10-25T06:23:53.151Z,405.00
2022-10-25T06:24:53.140Z,427.50
2022-10-25T06:25:53.152Z,371.25
2022-10-25T06:26:53.315Z,410.63
2022-10-25T06:27:53.131Z,360.00
2022-10-25T06:28:53.314Z,230.63
2022-10-25T06:29:53.103Z,101.25
2022-10-25T06:30:53.131Z,410.63
2022-10-25T06:31:53.123Z,331.88
2022-10-25T06:32:53.097Z,95.63
2022-10-25T06:33:53.136Z,118.13
2022-10-25T06:34:53.094Z,135.00
2022-10-25T06:35:53.072Z,95.63
2022-10-25T06:36:53.071Z,78.75
2022-10-25T06:37:53.288Z,135.00
2022-10-25T06:38:53.070Z,365.63
2022-10-25T06:39:53.386Z,489.38
2022-10-25T06:40:53.044Z,545.63
2022-10-25T06:41:53.040Z,849.38
2022-10-25T06:42:53.037Z,725.63
2022-10-25T06:43:53.027Z,596.25
2022-10-25T06:44:53.019Z,157.50
2022-10-25T06:45:53.027Z,151.88
2022-10-25T06:47:15.941Z,123.75
2022-10-25T06:47:53.024Z,303.75
2022-10-25T06:48:53.053Z,1001.25
2022-10-25T06:49:53.027Z,1057.50
2022-10-25T06:50:52.979Z,1102.50
2022-10-25T06:51:52.997Z,1130.63
2022-10-25T06:52:53.259Z,1147.50
2022-10-25T06:53:52.966Z,1164.38
2022-10-25T06:54:52.973Z,1035.00
2022-10-25T06:55:52.968Z,1192.50
2022-10-25T06:56:52.985Z,1209.38
2022-10-25T06:57:52.959Z,1209.38
2022-10-25T06:58:52.945Z,1203.75
2022-10-25T06:59:53.031Z,1198.13
2022-10-25T07:00:53.018Z,1203.75
2022-10-25T07:01:53.028Z,1158.75
2022-10-25T07:02:52.953Z,900.00
2022-10-25T07:03:52.944Z,489.38
2022-10-25T07:04:52.939Z,146.25
2022-10-25T07:05:52.932Z,208.13
2022-10-25T07:06:55.260Z,174.38
2022-10-25T07:07:52.933Z,168.75
2022-10-25T07:08:52.925Z,180.00
2022-10-25T07:09:52.913Z,1513.13
2022-10-25T07:10:52.928Z,1524.38
2022-10-25T07:11:53.133Z,1530.00
2022-10-25T07:12:52.914Z,1558.13
2022-10-25T07:13:52.910Z,1563.75
2022-10-25T07:14:52.904Z,1597.50
2022-10-25T07:15:53.113Z,1614.38
2022-10-25T07:16:52.897Z,1428.75
2022-10-25T07:17:52.902Z,1215.00
2022-10-25T07:18:52.946Z,1175.63
2022-10-25T07:19:52.906Z,225.00
2022-10-25T07:20:52.905Z,225.00
2022-10-25T07:21:52.898Z,551.25
2022-10-25T07:22:55.511Z,540.00
2022-10-25T07:23:52.949Z,163.13
2022-10-25T07:24:52.885Z,123.75
2022-10-25T07:25:52.898Z,135.00
2022-10-25T07:26:52.910Z,168.75
2022-10-25T07:27:52.881Z,168.75
2022-10-25T07:28:53.164Z,146.25
2022-10-25T07:29:52.951Z,146.25
2022-10-25T07:30:53.121Z,140.63
2022-10-25T07:31:52.907Z,253.13
2022-10-25T07:32:52.897Z,1186.88
2022-10-25T07:33:52.877Z,241.88
2022-10-25T07:34:53.327Z,163.13
2022-10-25T07:36:05.821Z,129.38
2022-10-25T07:36:53.017Z,129.38
2022-10-25T07:37:53.027Z,140.63
2022-10-25T07:38:52.853Z,163.13
2022-10-25T07:39:52.804Z,174.38
2022-10-25T07:40:52.811Z,236.25
2022-10-25T07:41:52.849Z,815.63
2022-10-25T07:42:52.833Z,421.88
2022-10-25T07:43:52.860Z,163.13
2022-10-25T07:44:52.809Z,123.75
2022-10-25T07:45:52.811Z,112.50
2022-10-25T07:46:52.802Z,129.38
2022-10-25T07:47:52.815Z,151.88
2022-10-25T07:48:52.808Z,168.75
2022-10-25T07:49:52.772Z,146.25
2022-10-25T07:50:52.817Z,168.75
2022-10-25T07:51:52.800Z,236.25
2022-10-25T07:52:52.990Z,196.88
2022-10-25T07:53:52.772Z,180.00
2022-10-25T07:54:52.779Z,208.13
2022-10-25T07:55:52.764Z,247.50
2022-10-25T07:56:52.818Z,388.13
2022-10-25T07:57:52.743Z,607.50
2022-10-25T07:58:52.811Z,191.25
2022-10-25T07:59:52.786Z,146.25
2022-10-25T08:00:52.780Z,140.63
2022-10-25T08:01:52.853Z,157.50
2022-10-25T08:02:52.841Z,180.00
2022-10-25T08:03:52.837Z,191.25
2022-10-25T08:04:54.346Z,163.13
2022-10-25T08:05:52.744Z,151.88
2022-10-25T08:06:52.713Z,146.25
2022-10-25T08:07:52.730Z,146.25
2022-10-25T08:08:52.884Z,140.63
2022-10-25T08:09:52.692Z,151.88
2022-10-25T08:10:52.688Z,135.00
2022-10-25T08:11:52.655Z,129.38
2022-10-25T08:12:52.768Z,129.38
2022-10-25T08:13:52.708Z,129.38
2022-10-25T08:14:52.650Z,135.00
2022-10-25T08:15:52.636Z,135.00
2022-10-25T08:16:52.658Z,140.63
2022-10-25T08:17:52.638Z,241.88
2022-10-25T08:18:52.630Z,309.38
2022-10-25T08:19:52.639Z,292.50
2022-10-25T08:21:07.996Z,275.63
2022-10-25T08:21:52.646Z,258.75
2022-10-25T08:22:52.651Z,236.25
2022-10-25T08:23:52.843Z,213.75
2022-10-25T08:24:52.805Z,163.13
2022-10-25T08:25:52.642Z,123.75
2022-10-25T08:26:52.644Z,95.63
2022-10-25T08:27:52.599Z,84.38
2022-10-25T08:28:52.585Z,73.13
2022-10-25T08:29:52.602Z,67.50
2022-10-25T08:30:52.621Z,67.50
2022-10-25T08:31:52.614Z,61.88
2022-10-25T08:32:52.788Z,56.25
2022-10-25T08:33:52.798Z,56.25
2022-10-25T08:34:52.549Z,56.25
2022-10-25T08:35:52.545Z,50.63
2022-10-25T08:36:52.546Z,50.63
2022-10-25T08:37:52.539Z,50.63
2022-10-25T08:38:52.589Z,50.63
2022-10-25T08:39:54.928Z,45.00
2022-10-25T08:40:52.544Z,45.00
2022-10-25T08:41:52.543Z,45.00
2022-10-25T08:42:52.505Z,45.00
2022-10-25T08:43:52.556Z,39.38
2022-10-25T08:44:52.537Z,39.38
2022-10-25T08:45:52.489Z,45.00
2022-10-25T08:46:52.705Z,50.63
2022-10-25T08:47:52.485Z,50.63
2022-10-25T08:48:52.525Z,56.25
2022-10-25T08:49:52.514Z,50.63
2022-10-25T08:50:52.518Z,50.63
2022-10-25T08:51:52.485Z,50.63
2022-10-25T08:52:52.513Z,45.00
2022-10-25T08:53:55.509Z,45.00
2022-10-25T08:54:52.562Z,45.00
2022-10-25T08:56:11.677Z,50.63
2022-10-25T08:57:10.737Z,56.25
2022-10-25T08:57:52.458Z,67.50
2022-10-25T08:58:52.476Z,67.50
2022-10-25T08:59:52.422Z,67.50
2022-10-25T09:00:52.453Z,73.13
2022-10-25T09:01:52.590Z,73.13
2022-10-25T09:02:52.413Z,73.13
2022-10-25T09:03:52.407Z,73.13
2022-10-25T09:04:52.428Z,73.13
2022-10-25T09:05:52.423Z,73.13
2022-10-25T09:06:52.393Z,73.13
2022-10-25T09:07:52.414Z,78.75
2022-10-25T09:08:52.438Z,84.38
2022-10-25T09:09:52.393Z,95.63
2022-10-25T09:10:52.480Z,118.13
2022-10-25T09:11:52.408Z,118.13
2022-10-25T09:12:52.345Z,129.38
2022-10-25T09:13:52.355Z,146.25
2022-10-25T09:14:52.382Z,196.88
2022-10-25T09:15:52.334Z,202.50
2022-10-25T09:16:52.334Z,191.25
2022-10-25T09:17:52.346Z,185.63
2022-10-25T09:18:52.312Z,174.38
2022-10-25T09:19:52.337Z,135.00
2022-10-25T09:20:52.362Z,163.13
2022-10-25T09:21:52.309Z,241.88
2022-10-25T09:22:52.339Z,157.50
2022-10-25T09:23:52.283Z,129.38
2022-10-25T09:24:54.104Z,123.75
2022-10-25T09:25:52.262Z,112.50
2022-10-25T09:26:52.289Z,101.25
2022-10-25T09:27:52.265Z,118.13
2022-10-25T09:28:52.275Z,118.13
2022-10-25T09:29:52.314Z,112.50
2022-10-25T09:30:52.274Z,106.88
2022-10-25T09:31:52.255Z,112.50
2022-10-25T09:32:52.251Z,106.88
2022-10-25T09:33:52.271Z,174.38
2022-10-25T09:34:52.311Z,151.88
2022-10-25T09:35:52.239Z,140.63
2022-10-25T09:36:52.467Z,129.38
2022-10-25T09:37:52.426Z,202.50
2022-10-25T09:38:52.208Z,213.75
2022-10-25T09:39:52.231Z,196.88
2022-10-25T09:40:52.197Z,230.63
2022-10-25T09:41:52.286Z,180.00
2022-10-25T09:42:52.429Z,135.00
2022-10-25T09:43:52.194Z,185.63
2022-10-25T09:44:52.185Z,185.63
2022-10-25T09:45:52.171Z,123.75
2022-10-25T09:46:52.195Z,253.13
2022-10-25T09:47:52.222Z,129.38
2022-10-25T09:48:52.152Z,101.25
2022-10-25T09:49:52.158Z,90.00
2022-10-25T09:50:52.131Z,90.00
2022-10-25T09:51:52.153Z,90.00
2022-10-25T09:52:52.166Z,78.75
2022-10-25T09:53:52.141Z,78.75
2022-10-25T09:54:52.181Z,78.75
2022-10-25T09:55:52.102Z,95.63
2022-10-25T09:56:52.106Z,129.38
2022-10-25T09:57:52.092Z,185.63
2022-10-25T09:58:52.225Z,146.25
2022-10-25T09:59:52.113Z,180.00
2022-10-25T10:00:52.089Z,236.25
2022-10-25T10:01:52.273Z,191.25
2022-10-25T10:02:52.254Z,168.75
2022-10-25T10:03:54.796Z,309.38
2022-10-25T10:04:52.051Z,371.25
2022-10-25T10:05:52.082Z,123.75
2022-10-25T10:06:52.095Z,118.13
2022-10-25T10:07:52.058Z,123.75
2022-10-25T10:08:52.054Z,106.88
2022-10-25T10:09:52.286Z,95.63
2022-10-25T10:10:52.062Z,90.00
2022-10-25T10:11:52.036Z,90.00
2022-10-25T10:12:52.295Z,90.00
2022-10-25T10:13:52.240Z,84.38
2022-10-25T10:14:52.044Z,84.38
2022-10-25T10:15:52.068Z,84.38
2022-10-25T10:16:52.002Z,78.75
2022-10-25T10:17:52.070Z,73.13
2022-10-25T10:18:52.034Z,73.13
2022-10-25T10:19:52.024Z,73.13
2022-10-25T10:20:51.977Z,78.75
2022-10-25T10:21:52.031Z,90.00
2022-10-25T10:22:51.988Z,90.00
2022-10-25T10:23:51.980Z,90.00
2022-10-25T10:24:51.934Z,95.63
2022-10-25T10:25:51.989Z,106.88
2022-10-25T10:26:51.947Z,118.13
2022-10-25T10:27:51.939Z,123.75
2022-10-25T10:28:51.933Z,146.25
2022-10-25T10:29:52.140Z,129.38
2022-10-25T10:30:51.950Z,135.00
2022-10-25T10:31:51.918Z,135.00
2022-10-25T10:32:53.857Z,157.50
2022-10-25T10:33:52.321Z,129.38
2022-10-25T10:34:51.901Z,129.38
2022-10-25T10:35:51.894Z,135.00
2022-10-25T10:36:51.966Z,146.25
2022-10-25T10:37:51.891Z,174.38
2022-10-25T10:38:51.905Z,135.00
2022-10-25T10:39:51.878Z,123.75
2022-10-25T10:40:52.013Z,151.88
2022-10-25T10:41:51.872Z,180.00
2022-10-25T10:42:52.895Z,180.00
2022-10-25T10:43:51.866Z,185.63
2022-10-25T10:44:51.851Z,180.00
2022-10-25T10:45:51.854Z,174.38
2022-10-25T10:46:51.846Z,151.88
2022-10-25T10:47:51.849Z,146.25
2022-10-25T10:48:51.818Z,191.25
2022-10-25T10:49:51.820Z,135.00
2022-10-25T10:50:51.847Z,140.63
2022-10-25T10:51:52.030Z,140.63
2022-10-25T10:52:55.132Z,174.38
2022-10-25T10:53:51.788Z,151.88
2022-10-25T10:54:51.793Z,180.00
2022-10-25T10:55:51.847Z,168.75
2022-10-25T10:56:51.786Z,168.75
2022-10-25T10:57:51.816Z,157.50
2022-10-25T10:58:53.582Z,157.50
2022-10-25T10:59:51.782Z,168.75
2022-10-25T11:00:51.769Z,112.50
2022-10-25T11:01:51.919Z,101.25
2022-10-25T11:02:52.623Z,101.25
2022-10-25T11:03:59.847Z,95.63
2022-10-25T11:04:51.753Z,95.63
2022-10-25T11:05:51.748Z,101.25
2022-10-25T11:06:51.776Z,112.50
2022-10-25T11:07:51.747Z,118.13
2022-10-25T11:08:51.791Z,123.75
2022-10-25T11:09:51.930Z,118.13
2022-10-25T11:10:51.929Z,118.13
2022-10-25T11:11:51.747Z,106.88
2022-10-25T11:12:51.944Z,101.25
2022-10-25T11:13:51.709Z,101.25
2022-10-25T11:14:51.691Z,101.25
2022-10-25T11:15:51.687Z,101.25
2022-10-25T11:16:51.728Z,95.63
2022-10-25T11:17:51.696Z,84.38
2022-10-25T11:18:51.809Z,78.75
2022-10-25T11:19:51.709Z,78.75
2022-10-25T11:20:51.695Z,78.75
2022-10-25T11:21:51.665Z,90.00
2022-10-25T11:22:51.670Z,95.63
2022-10-25T11:23:51.677Z,95.63
2022-10-25T11:24:51.694Z,84.38
2022-10-25T11:25:51.640Z,84.38
2022-10-25T11:26:51.645Z,95.63
2022-10-25T11:27:51.845Z,112.50
2022-10-25T11:28:51.672Z,123.75
2022-10-25T11:29:51.647Z,118.13
2022-10-25T11:30:51.620Z,112.50
2022-10-25T11:31:51.651Z,101.25
2022-10-25T11:32:51.666Z,90.00
2022-10-25T11:33:51.606Z,78.75
2022-10-25T11:34:51.701Z,73.13
2022-10-25T11:35:51.601Z,67.50
2022-10-25T11:36:51.601Z,61.88
2022-10-25T11:37:51.560Z,61.88
2022-10-25T11:38:51.570Z,56.25
2022-10-25T11:39:51.768Z,56.25
2022-10-25T11:40:51.554Z,106.88
2022-10-25T11:41:51.556Z,95.63
2022-10-25T11:42:51.573Z,112.50
2022-10-25T11:43:51.587Z,118.13
2022-10-25T11:44:51.564Z,129.38
2022-10-25T11:45:51.594Z,129.38
2022-10-25T11:46:51.534Z,140.63
2022-10-25T11:47:51.532Z,146.25
2022-10-25T11:48:51.525Z,151.88
2022-10-25T11:49:56.741Z,151.88
2022-10-25T11:50:51.637Z,146.25
2022-10-25T11:51:51.523Z,135.00
2022-10-25T11:52:54.443Z,101.25
2022-10-25T11:53:51.523Z,95.63
2022-10-25T11:54:51.477Z,95.63
2022-10-25T11:55:51.517Z,90.00
2022-10-25T11:56:51.516Z,84.38
2022-10-25T11:57:51.488Z,78.75
2022-10-25T11:58:51.489Z,84.38
2022-10-25T11:59:51.477Z,90.00
2022-10-25T12:00:51.467Z,95.63
2022-10-25T12:01:51.574Z,95.63
2022-10-25T12:02:51.776Z,106.88
2022-10-25T12:03:51.692Z,112.50
2022-10-25T12:04:51.429Z,106.88
2022-10-25T12:05:51.452Z,112.50
2022-10-25T12:06:51.565Z,112.50
2022-10-25T12:07:51.443Z,106.88
2022-10-25T12:08:51.471Z,101.25
2022-10-25T12:09:51.402Z,95.63
2022-10-25T12:10:51.429Z,95.63
2022-10-25T12:11:51.394Z,95.63
2022-10-25T12:12:51.409Z,95.63
2022-10-25T12:13:51.401Z,95.63
2022-10-25T12:14:51.393Z,95.63
2022-10-25T12:15:51.378Z,95.63
2022-10-25T12:16:51.369Z,90.00
2022-10-25T12:17:51.410Z,90.00
2022-10-25T12:18:51.366Z,90.00
2022-10-25T12:19:51.399Z,84.38
2022-10-25T12:20:51.607Z,78.75
2022-10-25T12:21:51.347Z,78.75
2022-10-25T12:22:51.498Z,78.75
2022-10-25T12:23:51.375Z,78.75
2022-10-25T12:24:51.345Z,73.13
2022-10-25T12:25:51.364Z,73.13
2022-10-25T12:26:51.504Z,73.13
2022-10-25T12:27:56.420Z,78.75
2022-10-25T12:28:51.372Z,78.75
2022-10-25T12:29:51.305Z,78.75
2022-10-25T12:30:51.316Z,78.75
2022-10-25T12:31:51.289Z,78.75
2022-10-25T12:32:51.319Z,84.38
2022-10-25T12:33:51.533Z,84.38
2022-10-25T12:34:51.285Z,78.75
2022-10-25T12:35:51.697Z,78.75
2022-10-25T12:36:51.255Z,78.75
2022-10-25T12:37:55.006Z,78.75
2022-10-25T12:38:51.367Z,73.13
2022-10-25T12:39:51.251Z,73.13
2022-10-25T12:40:51.233Z,73.13
2022-10-25T12:41:51.237Z,67.50
2022-10-25T12:42:51.254Z,67.50
2022-10-25T12:43:51.236Z,67.50
2022-10-25T12:44:51.235Z,67.50
2022-10-25T12:45:55.946Z,67.50
2022-10-25T12:46:51.230Z,67.50
2022-10-25T12:47:51.209Z,67.50
2022-10-25T12:48:51.221Z,73.13
2022-10-25T12:49:51.206Z,67.50
2022-10-25T12:50:51.173Z,67.50
2022-10-25T12:51:51.208Z,67.50
2022-10-25T12:52:51.489Z,67.50
2022-10-25T12:53:51.220Z,67.50
2022-10-25T12:54:51.288Z,73.13
2022-10-25T12:55:51.168Z,73.13
2022-10-25T12:56:51.411Z,73.13
2022-10-25T12:57:51.297Z,73.13